Time;durP1;ratioP1;P1;durP2;ratioP2;P2;SDS_P1;SDS_P2;PMS_P1;PMS_P2;Temp;Humidity;BMP_temperature;BMP_pressure;BME280_temperature;BME280_humidity;BME280_pressure;Samples;Min_cycle;Max_cycle;Signal;HPM_P1;HPM_P2
2021/06/21 00:02:16;;;;;;;0.25;0.25;;;;;;;28.50;47.53;100773.75;5052517;28;20048;-40
2021/06/21 00:04:42;;;;;;;0.50;0.50;;;;;;;28.47;47.72;100767.94;5052165;28;20044;-40
2021/06/21 00:07:08;;;;;;;0.10;0.10;;;;;;;28.44;47.47;100772.63;5036009;28;20045;-40
2021/06/21 00:09:33;;;;;;;0.10;0.10;;;;;;;28.43;47.53;100770.13;5052215;28;20064;-40
2021/06/21 00:11:59;;;;;;;0.10;0.10;;;;;;;28.41;47.54;100770.31;5052456;28;20414;-40
2021/06/21 00:14:27;;;;;;;0.10;0.10;;;;;;;28.38;47.61;100777.88;5055090;28;20051;-41
2021/06/21 00:16:53;;;;;;;0.13;0.13;;;;;;;28.37;47.72;100768.97;5056218;28;20049;-40
2021/06/21 00:19:18;;;;;;;0.10;0.10;;;;;;;28.42;47.58;100776.50;5056577;28;20499;-44
2021/06/21 00:21:44;;;;;;;0.20;0.20;;;;;;;28.46;47.50;100777.84;5056110;28;20048;-44
2021/06/21 00:24:10;;;;;;;0.20;0.20;;;;;;;28.45;47.12;100768.09;5056119;28;20095;-44
2021/06/21 00:26:35;;;;;;;0.20;0.20;;;;;;;28.44;47.20;100766.41;5056489;28;20045;-44
2021/06/21 00:29:03;;;;;;;0.40;0.40;;;;;;;28.43;47.20;100772.81;5055902;28;20091;-45
2021/06/21 00:31:28;;;;;;;0.10;0.10;;;;;;;28.42;47.32;100766.59;5055709;28;20049;-43
2021/06/21 00:33:54;;;;;;;0.30;0.30;;;;;;;28.41;47.44;100774.84;5055595;28;20037;-45
2021/06/21 00:36:20;;;;;;;0.20;0.20;;;;;;;28.39;47.52;100771.50;5054322;28;20053;-44
2021/06/21 00:38:45;;;;;;;0.10;0.10;;;;;;;28.40;47.34;100774.00;5055560;28;20044;-44
2021/06/21 00:41:11;;;;;;;0.10;0.10;;;;;;;28.40;47.17;100779.38;5056033;28;20041;-44
2021/06/21 00:43:36;;;;;;;0.10;0.10;;;;;;;28.40;47.39;100775.88;5055497;28;20049;-45
2021/06/21 00:46:02;;;;;;;0.10;0.10;;;;;;;28.39;47.07;100782.25;5055346;28;20033;-44
2021/06/21 00:48:28;;;;;;;0.13;0.13;;;;;;;28.39;47.07;100774.19;5055356;28;20037;-44
2021/06/21 00:50:53;;;;;;;0.00;0.00;;;;;;;28.38;47.15;100776.03;5055411;28;20044;-44
2021/06/21 00:53:19;;;;;;;0.10;0.10;;;;;;;28.37;47.06;100776.22;5051343;28;20422;-44
2021/06/21 00:55:45;;;;;;;0.40;0.40;;;;;;;28.37;47.21;100777.03;5034993;28;20175;-44
2021/06/21 00:58:11;;;;;;;0.10;0.10;;;;;;;28.36;47.05;100777.22;5035532;28;20041;-43
2021/06/21 01:00:37;;;;;;;0.10;0.10;;;;;;;28.34;47.30;100777.38;5035533;28;20148;-44
2021/06/21 01:03:08;;;;;;;0.00;0.00;;;;;;;28.35;47.25;100775.53;5035516;28;20103;-44
2021/06/21 01:05:36;;;;;;;0.10;0.10;;;;;;;28.33;47.19;100774.88;5035324;28;20049;-44
2021/06/21 01:08:09;;;;;;;0.10;0.10;;;;;;;28.31;47.40;100768.84;5035024;28;20042;-44
2021/06/21 01:10:36;;;;;;;0.15;0.15;;;;;;;28.30;47.20;100765.34;5035981;28;20037;-44
2021/06/21 01:13:40;;;;;;;0.10;0.10;;;;;;;28.31;47.21;100766.16;5035025;28;20136;-44
2021/06/21 01:16:21;;;;;;;0.10;0.10;;;;;;;28.27;47.17;100768.34;5035546;28;20053;-44
2021/06/21 01:19:16;;;;;;;0.00;0.00;;;;;;;28.27;47.17;100771.03;5035217;28;20095;-43
2021/06/21 01:22:13;;;;;;;0.22;0.22;;;;;;;28.26;47.03;100771.22;5034830;28;20038;-44
2021/06/21 01:25:00;;;;;;;0.10;0.10;;;;;;;28.24;46.95;100765.22;5025557;28;20050;-43
2021/06/21 01:27:49;;;;;;;0.45;0.45;;;;;;;28.23;47.25;100768.91;5035034;28;20072;-44
2021/06/21 01:30:18;;;;;;;0.35;0.22;;;;;;;28.21;47.19;100765.53;5050023;28;20051;-44
2021/06/21 01:32:49;;;;;;;0.38;0.38;;;;;;;28.19;47.16;100759.50;5035453;28;20091;-44
2021/06/21 01:35:27;;;;;;;0.15;0.15;;;;;;;28.19;47.11;100764.88;5033732;28;20402;-45
2021/06/21 01:37:53;;;;;;;0.10;0.10;;;;;;;28.17;46.93;100772.28;5050204;28;20135;-44
2021/06/21 01:40:19;;;;;;;0.20;0.20;;;;;;;28.16;46.97;100770.59;5033253;28;20045;-44
2021/06/21 01:42:48;;;;;;;0.08;0.08;;;;;;;28.14;47.11;100778.00;5033521;28;20037;-44
2021/06/21 01:45:16;;;;;;;0.10;0.10;;;;;;;28.12;47.11;100780.03;5034361;28;20540;-44
2021/06/21 01:47:42;;;;;;;0.05;0.05;;;;;;;28.12;47.08;100780.03;5034210;28;20406;-46
2021/06/21 01:50:08;;;;;;;0.20;0.20;;;;;;;28.10;47.13;100776.69;5033370;28;20049;-46
2021/06/21 01:52:38;;;;;;;0.10;0.10;;;;;;;28.08;47.22;100778.69;5033352;28;20127;-46
2021/06/21 01:55:04;;;;;;;0.13;0.13;;;;;;;28.07;47.00;100782.41;5033200;28;20093;-46
2021/06/21 01:57:31;;;;;;;0.05;0.05;;;;;;;28.05;47.00;100781.69;5034664;28;20046;-45
2021/06/21 01:59:57;;;;;;;0.10;0.10;;;;;;;28.01;47.05;100789.25;5032938;28;20132;-46
2021/06/21 02:02:23;;;;;;;0.10;0.10;;;;;;;28.03;46.94;100791.78;5032883;28;20042;-46
2021/06/21 02:04:51;;;;;;;0.10;0.10;;;;;;;28.00;47.20;100786.75;5033829;28;20053;-46
2021/06/21 02:07:17;;;;;;;0.10;0.10;;;;;;;28.00;47.19;100795.66;5033806;28;20045;-46
2021/06/21 02:09:43;;;;;;;0.10;0.10;;;;;;;28.01;46.88;100793.81;5033536;28;20048;-46
2021/06/21 02:12:09;;;;;;;0.20;0.20;;;;;;;28.01;47.12;100800.00;5032900;28;20038;-42
2021/06/21 02:14:35;;;;;;;0.10;0.10;;;;;;;28.02;46.89;100796.31;5049148;28;20100;-43
2021/06/21 02:17:02;;;;;;;0.00;0.00;;;;;;;28.01;47.27;100799.19;5032887;28;20410;-42
2021/06/21 02:19:29;;;;;;;0.10;0.10;;;;;;;28.00;46.96;100787.59;5048948;28;20048;-42
2021/06/21 02:21:55;;;;;;;0.10;0.10;;;;;;;28.01;47.05;100799.19;5049771;28;20495;-42
2021/06/21 02:24:21;;;;;;;0.20;0.20;;;;;;;28.03;47.26;100802.53;5049243;28;20052;-42
2021/06/21 02:26:47;;;;;;;0.10;0.10;;;;;;;28.01;47.03;100800.00;5032461;28;20047;-42
2021/06/21 02:29:14;;;;;;;0.20;0.20;;;;;;;28.01;46.84;100789.25;5033839;28;20037;-42
2021/06/21 02:31:40;;;;;;;0.10;0.10;;;;;;;28.00;47.09;100795.66;5033472;28;20085;-42
2021/06/21 02:34:05;;;;;;;0.20;0.20;;;;;;;27.99;47.11;100795.81;5033754;28;20045;-42
2021/06/21 02:36:31;;;;;;;0.10;0.10;;;;;;;28.00;46.89;100789.44;5048273;28;20044;-42
2021/06/21 02:38:58;;;;;;;0.10;0.10;;;;;;;27.96;47.20;100786.28;5033679;28;20060;-42
2021/06/21 02:41:24;;;;;;;0.25;0.25;;;;;;;27.99;47.15;100790.44;5032510;28;20075;-42
2021/06/21 02:43:50;;;;;;;0.17;0.17;;;;;;;27.99;47.08;100793.97;5033586;28;20045;-42
2021/06/21 02:46:15;;;;;;;0.10;0.10;;;;;;;27.98;47.04;100783.41;5033415;28;20091;-41
2021/06/21 02:48:41;;;;;;;0.05;0.05;;;;;;;27.98;46.77;100783.41;5034072;28;20386;-42
2021/06/21 02:51:07;;;;;;;0.15;0.15;;;;;;;27.98;47.12;100780.75;5033470;28;20064;-42
2021/06/21 02:54:00;;;;;;;0.10;0.10;;;;;;;27.99;46.86;100774.34;5032222;28;20037;-41
2021/06/21 02:56:37;;;;;;;0.05;0.05;;;;;;;27.96;46.84;100778.22;5031076;28;20392;-42
2021/06/21 02:59:06;;;;;;;0.40;0.40;;;;;;;27.97;47.12;100779.06;5032440;28;20045;-42
2021/06/21 03:01:31;;;;;;;0.15;0.15;;;;;;;27.95;47.16;100777.38;5048547;28;20044;-41
2021/06/21 03:03:57;;;;;;;0.00;0.00;;;;;;;27.93;47.20;100781.25;5048587;28;20041;-42
2021/06/21 03:06:23;;;;;;;0.10;0.10;;;;;;;27.92;47.15;100776.88;5031989;28;20037;-42
2021/06/21 03:08:48;;;;;;;0.13;0.13;;;;;;;27.92;46.94;100783.09;5032483;28;20568;-42
2021/06/21 03:11:17;;;;;;;0.10;0.10;;;;;;;27.92;46.79;100779.56;5031987;28;20521;-43
2021/06/21 03:13:46;;;;;;;0.10;0.10;;;;;;;27.93;46.98;100778.56;5048611;28;20041;-42
2021/06/21 03:16:12;;;;;;;0.20;0.20;;;;;;;27.94;46.71;100789.09;5031878;28;20072;-42
2021/06/21 03:18:39;;;;;;;0.10;0.10;;;;;;;27.93;46.91;100782.09;5031765;28;20065;-42
2021/06/21 03:21:04;;;;;;;0.10;0.10;;;;;;;27.93;47.01;100798.19;5031574;28;20040;-42
2021/06/21 03:23:31;;;;;;;0.10;0.10;;;;;;;27.94;47.10;100794.47;5031830;28;20045;-42
2021/06/21 03:25:58;;;;;;;0.35;0.35;;;;;;;27.93;46.99;100795.50;5032874;28;20045;-41
2021/06/21 03:28:24;;;;;;;0.10;0.10;;;;;;;27.94;47.08;100804.41;5032670;28;20037;-42
2021/06/21 03:30:51;;;;;;;0.20;0.20;;;;;;;27.95;46.97;100800.69;5033615;28;20056;-42
2021/06/21 03:33:18;;;;;;;0.10;0.10;;;;;;;27.94;46.89;100801.72;5032658;28;20048;-43
2021/06/21 03:35:44;;;;;;;0.10;0.10;;;;;;;27.91;46.98;100794.84;5031309;28;20065;-41
2021/06/21 03:38:14;;;;;;;0.98;0.90;;;;;;;27.97;47.03;100800.53;5031439;28;20099;-42
2021/06/21 03:40:42;;;;;;;0.10;0.10;;;;;;;27.97;46.67;100803.22;5030421;28;20077;-42
2021/06/21 03:43:08;;;;;;;0.30;0.30;;;;;;;27.96;46.92;100802.38;5031211;28;20045;-42
2021/06/21 03:45:34;;;;;;;0.30;0.30;;;;;;;27.99;46.56;100809.25;5032661;28;20048;-42
2021/06/21 03:47:59;;;;;;;0.10;0.10;;;;;;;27.99;46.96;100810.09;5035144;28;20045;-42
2021/06/21 03:50:25;;;;;;;0.10;0.10;;;;;;;28.00;46.84;100808.25;5036760;28;20045;-41
2021/06/21 03:52:51;;;;;;;0.20;0.20;;;;;;;27.98;46.56;100811.09;5036718;28;20099;-42
2021/06/21 03:55:16;;;;;;;0.30;0.30;;;;;;;27.99;46.75;100811.94;5036406;28;20045;-41
2021/06/21 03:57:43;;;;;;;0.10;0.10;;;;;;;27.99;46.63;100809.25;5036623;28;20495;-42
2021/06/21 04:00:18;;;;;;;0.20;0.20;;;;;;;27.98;46.84;100811.09;5036571;28;20033;-42
2021/06/21 04:02:43;;;;;;;1.20;0.30;;;;;;;27.98;47.12;100815.66;5036543;28;20072;-42
2021/06/21 04:05:10;;;;;;;0.10;0.10;;;;;;;27.98;47.11;100815.66;5036233;28;20207;-42
2021/06/21 04:07:35;;;;;;;0.10;0.10;;;;;;;27.98;46.96;100816.47;5036465;28;20045;-41
2021/06/21 04:10:04;;;;;;;0.10;0.10;;;;;;;27.99;46.96;100811.94;5036198;28;20037;-42
2021/06/21 04:12:31;;;;;;;0.00;0.00;;;;;;;28.00;46.98;100819.81;5036314;28;20049;-41
2021/06/21 04:14:56;;;;;;;0.10;0.10;;;;;;;28.01;46.67;100817.97;5035897;28;20349;-41
2021/06/21 04:17:22;;;;;;;0.10;0.10;;;;;;;28.01;47.03;100828.72;5036319;28;20049;-41
2021/06/21 04:19:48;;;;;;;0.20;0.20;;;;;;;28.01;46.80;100826.03;5036771;28;20038;-41
2021/06/21 04:22:13;;;;;;;0.10;0.10;;;;;;;28.02;46.86;100822.31;5036154;28;20037;-41
2021/06/21 04:24:39;;;;;;;0.20;0.20;;;;;;;28.03;47.01;100819.47;5035600;28;20049;-41
2021/06/21 04:27:05;;;;;;;0.10;0.10;;;;;;;28.04;46.65;100821.16;5035618;28;20050;-41
2021/06/21 04:29:31;;;;;;;0.10;0.10;;;;;;;28.04;46.97;100815.78;5034893;28;20052;-41
2021/06/21 04:31:56;;;;;;;0.20;0.20;;;;;;;28.06;47.00;100818.31;5038522;28;20037;-42
2021/06/21 04:34:22;;;;;;;0.10;0.10;;;;;;;28.05;47.04;100820.13;5044878;28;20037;-41
2021/06/21 04:36:47;;;;;;;0.20;0.20;;;;;;;28.05;46.96;100821.97;5035960;28;20037;-41
2021/06/21 04:39:13;;;;;;;0.10;0.10;;;;;;;28.06;47.11;100824.53;5035910;28;20052;-41
2021/06/21 04:41:39;;;;;;;0.17;0.17;;;;;;;28.04;46.79;100823.84;5035868;28;20037;-41
2021/06/21 04:44:04;;;;;;;0.30;0.30;;;;;;;28.06;46.87;100826.38;5035802;28;20040;-41
2021/06/21 04:46:33;;;;;;;0.17;0.17;;;;;;;28.07;46.97;100825.38;5035419;28;20095;-41
2021/06/21 04:48:59;;;;;;;0.10;0.10;;;;;;;28.07;46.81;100820.00;5035890;28;20042;-41
2021/06/21 04:51:25;;;;;;;0.10;0.10;;;;;;;28.08;46.98;100825.19;5035389;28;20123;-41
2021/06/21 04:53:50;;;;;;;0.10;0.10;;;;;;;28.08;47.08;100822.50;5051131;28;20037;-41
2021/06/21 04:56:16;;;;;;;0.10;0.10;;;;;;;28.09;46.82;100826.03;5050985;28;20045;-41
2021/06/21 04:58:43;;;;;;;0.10;0.10;;;;;;;28.09;47.09;100823.34;5034680;28;20037;-41
2021/06/21 05:01:09;;;;;;;0.40;0.40;;;;;;;28.09;47.23;100832.25;5035519;28;20064;-41
2021/06/21 05:03:37;;;;;;;0.10;0.10;;;;;;;28.10;46.94;100825.03;5034032;28;20387;-41
2021/06/21 05:06:06;;;;;;;0.35;0.35;;;;;;;28.10;46.98;100817.81;5034133;28;20041;-41
2021/06/21 05:08:32;;;;;;;0.03;0.03;;;;;;;28.11;46.92;100821.34;5035588;28;20037;-41
2021/06/21 05:10:58;;;;;;;0.20;0.20;;;;;;;28.11;46.95;100826.72;5034145;28;20128;-41
2021/06/21 05:13:23;;;;;;;0.10;0.10;;;;;;;28.11;47.33;100826.72;5035284;28;20030;-41
2021/06/21 05:15:49;;;;;;;0.20;0.20;;;;;;;28.11;47.06;100822.16;5035522;28;20061;-41
2021/06/21 05:18:15;;;;;;;0.10;0.10;;;;;;;28.13;47.18;100819.31;5035182;28;20045;-41
2021/06/21 05:20:41;;;;;;;0.10;0.10;;;;;;;28.12;46.94;100821.16;5033659;28;20052;-41
2021/06/21 05:23:06;;;;;;;0.03;0.03;;;;;;;28.12;47.03;100817.63;5033840;28;20037;-41
2021/06/21 05:25:33;;;;;;;0.00;0.00;;;;;;;28.12;47.00;100825.69;5034890;28;20041;-41
2021/06/21 05:28:00;;;;;;;0.10;0.10;;;;;;;28.12;47.11;100814.94;5034952;28;20033;-41
2021/06/21 05:30:26;;;;;;;0.10;0.10;;;;;;;28.12;47.23;100823.00;5034916;28;20064;-41
2021/06/21 05:32:51;;;;;;;0.00;0.00;;;;;;;28.13;47.04;100820.16;5033963;28;20045;-41
2021/06/21 05:35:17;;;;;;;0.30;0.30;;;;;;;28.17;47.18;100823.31;5034516;28;20053;-41
2021/06/21 05:37:43;;;;;;;0.10;0.10;;;;;;;28.15;47.10;100820.81;5034790;28;20042;-41
2021/06/21 05:40:10;;;;;;;0.10;0.10;;;;;;;28.18;46.84;100822.28;5034355;28;20045;-41
2021/06/21 05:42:35;;;;;;;0.40;0.40;;;;;;;28.19;46.78;100821.28;5034656;28;20053;-41
2021/06/21 05:45:01;;;;;;;0.10;0.10;;;;;;;28.19;46.77;100826.66;5034797;28;20041;-41
2021/06/21 05:47:27;;;;;;;0.10;0.10;;;;;;;28.20;47.14;100821.13;5034494;28;20092;-41
2021/06/21 05:49:52;;;;;;;0.10;0.10;;;;;;;28.21;46.72;100832.69;5034375;28;20041;-41
2021/06/21 05:52:18;;;;;;;0.17;0.17;;;;;;;28.21;47.18;100827.31;5035287;28;20037;-41
2021/06/21 05:54:44;;;;;;;0.00;0.00;;;;;;;28.22;47.03;100829.84;5049834;28;20037;-43
2021/06/21 05:57:09;;;;;;;0.25;0.25;;;;;;;28.25;46.75;100823.28;5054094;28;20102;-43
2021/06/21 05:59:35;;;;;;;0.40;0.40;;;;;;;28.28;46.71;100817.56;5054630;28;20055;-43
2021/06/21 06:02:01;;;;;;;0.10;0.10;;;;;;;28.30;46.85;100815.56;5045818;28;20045;-45
2021/06/21 06:04:26;;;;;;;0.10;0.10;;;;;;;28.33;46.69;100823.25;5032670;28;20510;-45
2021/06/21 06:06:52;;;;;;;0.20;0.20;;;;;;;28.36;46.91;100820.22;5046268;28;20036;-46
2021/06/21 06:09:17;;;;;;;0.10;0.10;;;;;;;28.39;46.78;100815.34;5052967;28;20099;-44
2021/06/21 06:11:43;;;;;;;0.10;0.10;;;;;;;28.40;46.87;100810.81;5050524;28;20037;-43
2021/06/21 06:14:09;;;;;;;0.10;0.10;;;;;;;28.42;46.62;100814.13;5044598;28;20659;-43
2021/06/21 06:16:34;;;;;;;0.10;0.10;;;;;;;28.44;46.48;100812.09;5044449;28;20106;-43
2021/06/21 06:19:00;;;;;;;0.15;0.15;;;;;;;28.46;46.57;100812.78;5052610;28;20095;-43
2021/06/21 06:21:29;;;;;;;0.10;0.10;;;;;;;28.47;46.52;100814.44;5052840;28;20045;-44
2021/06/21 06:23:56;;;;;;;0.10;0.10;;;;;;;28.51;46.86;100813.06;5053102;28;20044;-44
2021/06/21 06:26:22;;;;;;;0.20;0.20;;;;;;;28.53;46.59;100820.97;5052870;28;20391;-42
2021/06/21 06:28:48;;;;;;;0.10;0.10;;;;;;;28.57;46.74;100817.75;5039445;28;20166;-43
2021/06/21 06:31:13;;;;;;;0.30;0.30;;;;;;;28.58;46.67;100822.09;5032197;28;20072;-43
2021/06/21 06:33:39;;;;;;;0.10;0.10;;;;;;;28.60;46.35;100822.75;5032999;28;20052;-44
2021/06/21 06:36:05;;;;;;;0.13;0.13;;;;;;;28.63;46.50;100821.59;5037610;28;20053;-44
2021/06/21 06:38:31;;;;;;;0.10;0.10;;;;;;;28.66;46.41;100821.25;5052496;28;20040;-44
2021/06/21 06:40:58;;;;;;;0.10;0.10;;;;;;;28.67;46.75;100815.69;5046268;28;20041;-43
2021/06/21 06:43:24;;;;;;;0.13;0.13;;;;;;;28.71;46.60;100819.72;5044923;28;20060;-46
2021/06/21 06:45:49;;;;;;;0.20;0.20;;;;;;;28.75;46.26;100815.66;5052610;28;20037;-46
2021/06/21 06:48:15;;;;;;;0.20;0.20;;;;;;;28.76;46.68;100822.69;5052388;28;20037;-45
2021/06/21 06:50:40;;;;;;;0.32;0.25;;;;;;;28.75;46.65;100814.81;5052575;28;20410;-45
2021/06/21 06:53:07;;;;;;;0.10;0.10;;;;;;;28.77;46.37;100813.63;5052281;28;20045;-46
2021/06/21 06:58:17;;;;;;;0.20;0.20;;;;;;;28.82;46.56;100805.88;5052391;28;20403;-45
2021/06/21 07:00:42;;;;;;;0.10;0.10;;;;;;;28.85;46.41;100810.88;5051191;28;20048;-47
2021/06/21 07:03:08;;;;;;;0.10;0.10;;;;;;;28.90;46.42;100813.03;5052384;28;20041;-45
2021/06/21 07:05:35;;;;;;;0.10;0.10;;;;;;;28.93;46.50;100802.75;5052248;28;20087;-44
2021/06/21 07:08:01;;;;;;;0.00;0.00;;;;;;;28.94;46.70;100803.59;5051647;28;20048;-50
2021/06/21 07:10:26;;;;;;;0.30;0.30;;;;;;;28.97;46.60;100808.59;5049899;28;20037;-45
2021/06/21 07:12:52;;;;;;;0.10;0.10;;;;;;;29.00;46.32;100807.41;5049911;28;20048;-44
2021/06/21 07:15:18;;;;;;;0.20;0.20;;;;;;;29.05;46.27;100807.72;5049604;28;20701;-44
2021/06/21 07:17:44;;;;;;;0.10;0.10;;;;;;;29.08;46.14;100815.41;5043135;28;20060;-46
2021/06/21 07:20:11;;;;;;;0.00;0.00;;;;;;;29.11;46.38;100809.69;5032269;28;20045;-45
2021/06/21 07:22:36;;;;;;;0.10;0.10;;;;;;;29.11;46.31;100815.06;5029764;28;20037;-43
2021/06/21 07:25:03;;;;;;;0.10;0.10;;;;;;;29.12;46.21;100814.06;5031247;28;20037;-44
2021/06/21 07:27:29;;;;;;;0.10;0.10;;;;;;;29.14;46.08;100814.69;5032174;28;20124;-43
2021/06/21 07:29:55;;;;;;;0.17;0.17;;;;;;;29.17;46.29;100815.19;5032179;28;20041;-44
2021/06/21 07:32:20;;;;;;;0.00;0.00;;;;;;;29.19;46.08;100806.94;5032097;28;20048;-44
2021/06/21 07:34:46;;;;;;;0.10;0.10;;;;;;;29.18;46.20;100816.84;5032180;28;20049;-44
2021/06/21 07:37:12;;;;;;;0.10;0.10;;;;;;;29.19;46.38;100817.69;5041407;28;20048;-45
2021/06/21 07:39:37;;;;;;;0.10;0.10;;;;;;;29.22;45.99;100817.34;5052054;28;20048;-44
2021/06/21 07:42:04;;;;;;;0.10;0.10;;;;;;;29.22;45.98;100812.75;5051927;28;20071;-43
2021/06/21 07:44:30;;;;;;;0.05;0.05;;;;;;;29.22;46.34;100818.16;5051570;28;20037;-43
2021/06/21 07:46:56;;;;;;;0.10;0.10;;;;;;;29.23;46.35;100814.44;5051469;28;20049;-42
2021/06/21 07:49:21;;;;;;;0.00;0.00;;;;;;;29.23;46.41;100816.28;5050848;28;20575;-44
2021/06/21 07:51:47;;;;;;;0.43;0.43;;;;;;;29.22;46.06;100817.34;5051945;28;20498;-42
2021/06/21 07:54:14;;;;;;;0.10;0.10;;;;;;;29.27;46.10;100820.34;5045463;28;20174;-44
2021/06/21 07:56:40;;;;;;;0.10;0.10;;;;;;;29.30;46.24;100822.66;5048996;28;20195;-46
2021/06/21 07:59:05;;;;;;;0.10;0.10;;;;;;;29.33;46.07;100812.38;5051544;28;20041;-45
2021/06/21 08:01:31;;;;;;;0.10;0.10;;;;;;;29.35;46.17;100814.91;5051760;28;20067;-45
2021/06/21 08:03:57;;;;;;;0.10;0.10;;;;;;;29.38;46.18;100811.84;5050269;28;20534;-46
2021/06/21 08:06:25;;;;;;;0.10;0.10;;;;;;;29.35;46.20;100815.72;5051531;28;20041;-45
2021/06/21 08:08:51;;;;;;;0.10;0.10;;;;;;;29.34;46.05;100821.28;5051529;28;20482;-43
2021/06/21 08:11:16;;;;;;;0.28;0.28;;;;;;;29.36;46.12;100824.63;5051491;28;20049;-44
2021/06/21 08:13:54;;;;;;;0.08;0.08;;;;;;;29.36;46.28;100822.78;5051502;28;20093;-44
2021/06/21 08:16:20;;;;;;;0.00;0.00;;;;;;;29.36;46.13;100813.84;5042242;28;20041;-38
2021/06/21 08:18:45;;;;;;;0.10;0.10;;;;;;;29.40;45.94;100816.00;5033699;28;20098;-38
2021/06/21 08:21:11;;;;;;;0.10;0.10;;;;;;;29.46;45.90;100814.44;5046486;28;20448;-38
2021/06/21 08:23:37;;;;;;;0.00;0.00;;;;;;;29.49;46.16;100814.06;5049908;28;20045;-38
2021/06/21 08:26:02;;;;;;;0.10;0.10;;;;;;;29.53;45.86;100815.38;5051456;28;20037;-42
2021/06/21 08:28:28;;;;;;;0.13;0.13;;;;;;;29.55;46.09;100815.22;5050889;28;20514;-38
2021/06/21 08:30:54;;;;;;;0.10;0.10;;;;;;;29.55;45.89;100818.72;5049797;28;20048;-39
2021/06/21 08:33:19;;;;;;;0.00;0.00;;;;;;;29.52;46.33;100808.31;5051606;28;20056;-38
2021/06/21 08:35:45;;;;;;;0.00;0.00;;;;;;;29.52;45.98;100807.47;5054592;28;20048;-38
2021/06/21 08:38:11;;;;;;;0.00;0.00;;;;;;;29.52;46.18;100816.38;5054832;28;20033;-38
2021/06/21 08:40:36;;;;;;;0.03;0.03;;;;;;;29.51;46.35;100812.06;5055063;28;20028;-38
2021/06/21 08:43:03;;;;;;;0.10;0.10;;;;;;;29.49;46.20;100803.31;5055063;28;20052;-40
2021/06/21 08:45:30;;;;;;;0.10;0.10;;;;;;;29.46;46.30;100807.19;5054951;28;20041;-54
2021/06/21 08:47:55;;;;;;;0.08;0.08;;;;;;;29.49;46.21;100814.06;5054652;28;20061;-60
2021/06/21 08:50:21;;;;;;;0.08;0.08;;;;;;;29.54;46.18;100811.69;5054432;28;20044;-60
2021/06/21 08:52:47;;;;;;;0.15;0.15;;;;;;;29.58;46.32;100812.97;5053652;28;20037;-61
2021/06/21 08:55:12;;;;;;;0.00;0.00;;;;;;;29.63;45.88;100799.81;5054547;28;20414;-57
2021/06/21 08:57:40;;;;;;;0.00;0.00;;;;;;;29.69;45.90;100796.38;5054873;28;20090;-57
2021/06/21 09:00:08;;;;;;;0.00;0.00;;;;;;;29.75;45.77;100792.94;5054368;28;20057;-61
2021/06/21 09:02:34;;;;;;;0.75;0.75;;;;;;;29.80;45.67;100795.09;5053457;28;20047;-54
2021/06/21 09:05:00;;;;;;;0.00;0.00;;;;;;;29.87;45.45;100801.44;5054253;28;20127;-60
2021/06/21 09:07:27;;;;;;;0.00;0.00;;;;;;;29.96;45.64;100800.31;5052119;28;20059;-43
2021/06/21 09:09:54;;;;;;;0.03;0.03;;;;;;;29.98;45.54;100803.66;5054564;28;20045;-43
2021/06/21 09:12:30;;;;;;;0.00;0.00;;;;;;;29.94;45.64;100797.78;5054138;28;20037;-43
2021/06/21 09:14:56;;;;;;;0.00;0.00;;;;;;;29.95;45.73;100798.63;5054097;28;20055;-43
2021/06/21 09:17:35;;;;;;;0.00;0.00;;;;;;;29.95;45.74;100796.78;5054164;28;20041;-42
2021/06/21 09:20:03;;;;;;;0.00;0.00;;;;;;;30.00;45.59;100798.09;5054110;28;20041;-45
2021/06/21 09:22:37;;;;;;;0.10;0.10;;;;;;;30.00;45.66;100807.00;5054020;28;20414;-43
2021/06/21 09:25:16;;;;;;;0.20;0.20;;;;;;;30.02;45.64;100796.03;5054240;28;20045;-46
2021/06/21 09:27:56;;;;;;;0.13;0.13;;;;;;;30.07;45.55;100797.16;5054285;28;20095;-44
2021/06/21 09:30:22;;;;;;;0.13;0.13;;;;;;;30.10;45.47;100793.25;5054054;28;20033;-44
2021/06/21 09:32:49;;;;;;;0.10;0.10;;;;;;;30.14;45.31;100797.25;5054085;28;20399;-45
2021/06/21 09:35:30;;;;;;;0.10;0.10;;;;;;;30.13;45.29;100798.25;5053739;28;20098;-43
2021/06/21 09:38:01;;;;;;;0.00;0.00;;;;;;;30.10;45.57;100795.94;5053997;28;20049;-44
2021/06/21 09:40:30;;;;;;;0.05;0.05;;;;;;;30.08;45.29;100792.56;5052125;28;20036;-42
2021/06/21 09:42:56;;;;;;;;;;;;;;;30.12;45.27;100794.72;5043653;28;20049;-41
2021/06/21 09:45:21;;;;;;;0.00;0.00;;;;;;;30.12;45.14;100800.13;5033307;28;20035;-41
2021/06/21 09:47:47;;;;;;;0.10;0.10;;;;;;;30.11;45.19;100803.81;5044131;28;20037;-42
2021/06/21 09:50:19;;;;;;;0.20;0.20;;;;;;;30.13;45.38;100795.56;5053267;28;20127;-43
2021/06/21 09:52:45;;;;;;;0.10;0.10;;;;;;;30.15;44.91;100804.28;5053655;28;20190;-44
2021/06/21 09:55:31;;;;;;;0.00;0.00;;;;;;;30.19;45.09;100794.81;5053696;28;20541;-45
2021/06/21 09:58:01;;;;;;;0.10;0.10;;;;;;;30.24;44.91;100795.06;5053447;28;20136;-42
2021/06/21 10:00:27;;;;;;;0.05;0.05;;;;;;;30.28;44.66;100793.66;5053377;28;20041;-45
2021/06/21 10:03:19;;;;;;;0.10;0.10;;;;;;;30.32;44.89;100797.66;5053597;28;20052;-43
2021/06/21 10:06:05;;;;;;;0.10;0.10;;;;;;;30.33;44.68;100793.97;5053455;28;20049;-44
2021/06/21 10:08:46;;;;;;;0.03;0.03;;;;;;;30.31;44.97;100788.75;5052861;28;20053;-43
2021/06/21 10:11:37;;;;;;;0.00;0.00;;;;;;;30.31;45.04;100793.28;5053214;28;20052;-43
2021/06/21 10:14:04;;;;;;;0.10;0.10;;;;;;;30.29;44.87;100779.19;5052987;28;20056;-48
2021/06/21 10:16:30;;;;;;;0.00;0.00;;;;;;;30.31;45.03;100798.69;5053286;28;20101;-43
2021/06/21 10:18:55;;;;;;;0.00;0.00;;;;;;;30.33;45.07;100786.69;5051271;28;20452;-43
2021/06/21 10:21:22;;;;;;;0.00;0.00;;;;;;;30.36;44.94;100782.78;5052892;28;20040;-43
2021/06/21 10:23:48;;;;;;;0.00;0.00;;;;;;;30.37;44.77;100779.06;5038590;28;20133;-43
2021/06/21 10:26:14;;;;;;;0.10;0.10;;;;;;;30.40;44.94;100779.53;5041242;28;20041;-43
2021/06/21 10:28:39;;;;;;;0.10;0.10;;;;;;;30.45;44.55;100784.38;5033100;28;20476;-44
2021/06/21 10:31:05;;;;;;;0.20;0.20;;;;;;;30.48;44.87;100784.00;5032476;28;20507;-43
2021/06/21 10:33:32;;;;;;;0.00;0.00;;;;;;;30.51;44.60;100770.13;5032797;28;20037;-45
2021/06/21 10:36:01;;;;;;;0.10;0.10;;;;;;;30.50;44.71;100765.75;5032974;28;20048;-43
2021/06/21 10:38:26;;;;;;;0.00;0.00;;;;;;;30.53;44.74;100768.06;5050567;28;20409;-43
2021/06/21 10:41:01;;;;;;;0.05;0.05;;;;;;;30.55;44.70;100763.34;5051638;28;20044;-44
2021/06/21 10:43:46;;;;;;;0.10;0.10;;;;;;;30.57;44.68;100761.28;5052815;28;20072;-45
2021/06/21 10:46:23;;;;;;;0.00;0.00;;;;;;;30.60;44.58;100766.28;5047402;28;20169;-50
2021/06/21 10:49:01;;;;;;;0.10;0.10;;;;;;;30.62;44.51;100764.25;5034930;28;20044;-43
2021/06/21 10:51:40;;;;;;;0.00;0.00;;;;;;;30.64;44.42;100762.19;5032321;28;20045;-46
2021/06/21 10:54:07;;;;;;;0.10;0.10;;;;;;;30.66;44.25;100770.09;5050625;28;20072;-46
2021/06/21 10:56:46;;;;;;;0.00;0.00;;;;;;;30.65;44.35;100761.16;5051893;28;20040;-42
2021/06/21 10:59:12;;;;;;;0.10;0.10;;;;;;;30.63;44.31;100752.41;5051406;28;20040;-42
2021/06/21 11:01:58;;;;;;;0.10;0.10;;;;;;;30.65;44.34;100760.31;5052403;28;20124;-43
2021/06/21 11:04:36;;;;;;;0.00;0.00;;;;;;;30.67;44.13;100747.47;5051849;28;20106;-43
2021/06/21 11:07:18;;;;;;;0.13;0.13;;;;;;;30.69;44.22;100751.66;5052026;28;20040;-42
2021/06/21 11:10:07;;;;;;;0.30;0.30;;;;;;;30.71;43.94;100741.50;5052106;28;20043;-43
2021/06/21 11:12:33;;;;;;;0.40;0.40;;;;;;;30.72;43.85;100758.53;5052119;28;20140;-42
2021/06/21 11:17:46;;;;;;;0.10;0.10;;;;;;;30.74;43.90;100742.97;5046112;28;20052;-50
2021/06/21 11:20:40;;;;;;;0.15;0.15;;;;;;;30.76;43.78;100749.84;5051794;28;20052;-47
2021/06/21 11:23:25;;;;;;;3.45;1.15;;;;;;;30.75;43.77;100748.19;5050539;28;20103;-43
2021/06/21 11:25:51;;;;;;;0.25;0.25;;;;;;;30.77;43.73;100756.06;5051824;28;20045;-50
2021/06/21 11:28:38;;;;;;;0.13;0.13;;;;;;;30.80;43.66;100743.03;5051770;28;20087;-49
2021/06/21 11:31:19;;;;;;;0.10;0.10;;;;;;;30.82;43.73;100741.00;5052056;28;20094;-51
2021/06/21 11:33:59;;;;;;;0.15;0.15;;;;;;;30.83;43.54;100744.50;5052143;28;20052;-58
2021/06/21 11:36:42;;;;;;;0.50;0.50;;;;;;;30.85;43.77;100743.31;5051946;28;20051;-54